Time,TemperatureF,DewpointF,PressureIn,WindDirection,WindDirectionDegrees,WindSpeedMPH,WindSpeedGustMPH,Humidity,HourlyPrecipIn,Conditions,Clouds,dailyrainin,SoftwareType,DateUTC
2013-08-23 00:00:00,71.9,71.0,29.86,West,280,2.0,2.0,97,0.00,,,0.00,Wunderground v.1.15,2013-08-23 04:00:00,
2013-08-23 00:10:00,71.8,70.9,29.85,SW,217,2.0,8.0,97,0.00,,,0.00,Wunderground v.1.15,2013-08-23 04:10:00,
2013-08-23 00:20:00,71.7,70.8,29.85,WSW,247,2.0,8.0,97,0.00,,,0.00,Wunderground v.1.15,2013-08-23 04:20:00,
2013-08-23 00:30:00,71.6,70.7,29.85,SSW,207,3.0,3.0,97,0.00,,,0.00,Wunderground v.1.15,2013-08-23 04:30:00,
2013-08-23 00:40:00,71.6,70.7,29.85,West,278,2.0,2.0,97,0.00,,,0.00,Wunderground v.1.15,2013-08-23 04:40:00,
2013-08-23 00:50:00,71.7,71.1,29.85,SW,232,2.0,2.0,98,0.00,,,0.00,Wunderground v.1.15,2013-08-23 04:50:00,
2013-08-23 01:00:00,71.8,70.9,29.85,WNW,300,2.0,2.0,97,0.00,,,0.00,Wunderground v.1.15,2013-08-23 05:00:00,
2013-08-23 01:10:00,71.8,70.9,29.84,SE,145,2.0,2.0,97,0.00,,,0.00,Wunderground v.1.15,2013-08-23 05:10:00,
2013-08-23 01:20:00,72.0,71.1,29.84,WSW,243,2.0,2.0,97,0.00,,,0.00,Wunderground v.1.15,2013-08-23 05:20:00,
2013-08-23 01:30:00,72.1,71.2,29.84,ESE,106,2.0,2.0,97,0.00,,,0.00,Wunderground v.1.15,2013-08-23 05:30:00,
2013-08-23 01:40:00,72.0,71.1,29.84,WNW,285,2.0,2.0,97,0.00,,,0.00,Wunderground v.1.15,2013-08-23 05:40:00,
2013-08-23 01:50:00,71.7,70.5,29.84,North,356,2.0,8.0,96,0.00,,,0.00,Wunderground v.1.15,2013-08-23 05:50:00,
2013-08-23 02:00:00,71.7,70.5,29.83,ENE,73,2.0,2.0,96,0.00,,,0.00,Wunderground v.1.15,2013-08-23 06:00:00,
2013-08-23 02:10:00,71.5,70.3,29.84,NNW,342,2.0,8.0,96,0.00,,,0.00,Wunderground v.1.15,2013-08-23 06:10:00,
2013-08-23 02:20:00,71.2,70.0,29.83,WSW,253,3.0,8.0,96,0.00,,,0.00,Wunderground v.1.15,2013-08-23 06:20:00,
2013-08-23 02:30:00,71.2,70.0,29.84,SSW,196,2.0,8.0,96,0.00,,,0.00,Wunderground v.1.15,2013-08-23 06:30:00,
2013-08-23 02:40:00,70.9,69.7,29.83,SSE,167,2.0,2.0,96,0.00,,,0.00,Wunderground v.1.15,2013-08-23 06:40:00,
2013-08-23 02:50:00,71.0,70.1,29.83,WNW,290,1.0,8.0,97,0.00,,,0.00,Wunderground v.1.15,2013-08-23 06:50:00,
2013-08-23 03:00:00,71.1,70.2,29.83,West,278,3.0,3.0,97,0.00,,,0.00,Wunderground v.1.15,2013-08-23 07:00:00,
2013-08-23 03:10:00,71.0,69.8,29.83,WNW,293,2.0,2.0,96,0.00,,,0.00,Wunderground v.1.15,2013-08-23 07:10:00,
2013-08-23 03:20:00,71.0,70.1,29.82,ESE,107,2.0,8.0,97,0.00,,,0.00,Wunderground v.1.15,2013-08-23 07:20:00,
2013-08-23 03:30:00,71.0,70.1,29.83,NW,304,1.0,8.0,97,0.00,,,0.00,Wunderground v.1.15,2013-08-23 07:30:00,
2013-08-23 03:40:00,71.0,70.1,29.83,NW,317,1.0,8.0,97,0.00,,,0.00,Wunderground v.1.15,2013-08-23 07:40:00,
2013-08-23 03:50:00,70.8,69.6,29.82,SE,133,1.0,1.0,96,0.00,,,0.00,Wunderground v.1.15,2013-08-23 07:50:00,
2013-08-23 04:00:00,70.5,69.3,29.82,SW,235,0.0,8.0,96,0.00,,,0.00,Wunderground v.1.15,2013-08-23 08:00:00,
2013-08-23 04:10:00,70.2,69.3,29.82,NW,314,0.0,8.0,97,0.00,,,0.00,Wunderground v.1.15,2013-08-23 08:10:00,
2013-08-23 04:20:00,70.0,69.1,29.82,SSW,211,1.0,1.0,97,0.00,,,0.00,Wunderground v.1.15,2013-08-23 08:20:00,
2013-08-23 04:30:00,69.9,69.0,29.83,East,99,0.0,8.0,97,0.00,,,0.00,Wunderground v.1.15,2013-08-23 08:30:00,
2013-08-23 04:40:00,69.7,68.8,29.83,WNW,284,0.0,8.0,97,0.00,,,0.00,Wunderground v.1.15,2013-08-23 08:40:00,
2013-08-23 04:50:00,69.5,68.9,29.82,West,263,0.0,8.0,98,0.00,,,0.00,Wunderground v.1.15,2013-08-23 08:50:00,
2013-08-23 05:00:00,69.3,68.7,29.82,NW,305,0.0,8.0,98,0.00,,,0.00,Wunderground v.1.15,2013-08-23 09:00:00,
2013-08-23 05:10:00,69.1,68.5,29.83,WNW,283,0.0,8.0,98,0.00,,,0.00,Wunderground v.1.15,2013-08-23 09:10:00,
2013-08-23 05:20:00,69.0,68.4,29.83,WNW,290,0.0,8.0,98,0.00,,,0.00,Wunderground v.1.15,2013-08-23 09:20:00,
2013-08-23 05:30:00,68.9,68.3,29.83,West,278,0.0,8.0,98,0.00,,,0.00,Wunderground v.1.15,2013-08-23 09:30:00,
2013-08-23 05:40:00,68.7,68.1,29.83,West,281,0.0,8.0,98,0.00,,,0.00,Wunderground v.1.15,2013-08-23 09:40:00,
2013-08-23 05:50:00,68.5,67.9,29.83,SSE,167,0.0,8.0,98,0.00,,,0.00,Wunderground v.1.15,2013-08-23 09:50:00,
2013-08-23 06:00:00,68.3,67.7,29.84,SSE,168,0.0,8.0,98,0.00,,,0.00,Wunderground v.1.15,2013-08-23 10:00:00,
2013-08-23 06:10:00,68.1,67.5,29.84,SSE,167,0.0,8.0,98,0.00,,,0.00,Wunderground v.1.15,2013-08-23 10:10:00,
2013-08-23 06:20:00,68.2,67.6,29.84,SSE,167,0.0,8.0,98,0.00,,,0.00,Wunderground v.1.15,2013-08-23 10:20:00,
2013-08-23 06:30:00,68.3,67.7,29.84,SSE,167,0.0,8.0,98,0.00,,,0.00,Wunderground v.1.15,2013-08-23 10:30:00,
2013-08-23 06:40:00,68.5,68.2,29.85,East,79,0.0,8.0,99,0.00,,,0.00,Wunderground v.1.15,2013-08-23 10:40:00,
2013-08-23 06:50:00,68.9,68.6,29.85,West,263,0.0,8.0,99,0.00,,,0.00,Wunderground v.1.15,2013-08-23 10:50:00,
2013-08-23 07:00:00,69.1,68.5,29.86,West,260,0.0,8.0,98,0.00,,,0.00,Wunderground v.1.15,2013-08-23 11:00:00,
2013-08-23 07:10:00,69.3,68.7,29.86,North,360,1.0,1.0,98,0.00,,,0.00,Wunderground v.1.15,2013-08-23 11:10:00,
2013-08-23 07:20:00,69.5,68.6,29.86,SE,146,1.0,1.0,97,0.00,,,0.00,Wunderground v.1.15,2013-08-23 11:20:00,
2013-08-23 07:30:00,69.6,68.4,29.87,NNW,339,1.0,8.0,96,0.00,,,0.00,Wunderground v.1.15,2013-08-23 11:30:00,
2013-08-23 07:40:00,69.7,67.9,29.87,North,352,1.0,8.0,94,0.00,,,0.00,Wunderground v.1.15,2013-08-23 11:40:00,
2013-08-23 07:50:00,70.0,67.6,29.87,East,90,2.0,2.0,92,0.00,,,0.00,Wunderground v.1.15,2013-08-23 11:50:00,
2013-08-23 08:00:00,70.2,67.4,29.87,NW,319,1.0,8.0,91,0.00,,,0.00,Wunderground v.1.15,2013-08-23 12:00:00,
2013-08-23 08:10:00,70.3,67.2,29.87,NW,311,3.0,8.0,90,0.00,,,0.00,Wunderground v.1.15,2013-08-23 12:10:00,
2013-08-23 08:20:00,70.8,67.1,29.87,North,354,3.0,3.0,88,0.00,,,0.00,Wunderground v.1.15,2013-08-23 12:20:00,
2013-08-23 08:30:00,71.2,67.1,29.87,NW,315,3.0,3.0,87,0.00,,,0.00,Wunderground v.1.15,2013-08-23 12:30:00,
2013-08-23 08:40:00,71.7,66.9,29.88,NNE,26,3.0,8.0,85,0.00,,,0.00,Wunderground v.1.15,2013-08-23 12:40:00,
2013-08-23 08:50:00,72.2,67.1,29.88,NNW,348,2.0,8.0,84,0.00,,,0.00,Wunderground v.1.15,2013-08-23 12:50:00,
2013-08-23 09:00:00,72.2,66.7,29.89,ENE,67,3.0,8.0,83,0.00,,,0.00,Wunderground v.1.15,2013-08-23 13:00:00,
2013-08-23 09:10:00,72.2,66.7,29.89,NE,41,3.0,8.0,83,0.00,,,0.00,Wunderground v.1.15,2013-08-23 13:10:00,
2013-08-23 09:20:00,73.5,65.8,29.89,NNE,30,3.0,3.0,77,0.00,,,0.00,Wunderground v.1.15,2013-08-23 13:20:00,
2013-08-23 09:30:00,73.7,64.5,29.89,NE,50,4.0,4.0,73,0.00,,,0.00,Wunderground v.1.15,2013-08-23 13:30:00,
2013-08-23 09:40:00,74.1,64.9,29.90,NE,55,3.0,8.0,73,0.00,,,0.00,Wunderground v.1.15,2013-08-23 13:40:00,
2013-08-23 09:50:00,73.6,63.6,29.90,NE,39,4.0,8.0,71,0.00,,,0.00,Wunderground v.1.15,2013-08-23 13:50:00,
2013-08-23 10:00:00,74.0,63.6,29.91,NW,311,3.0,8.0,70,0.00,,,0.00,Wunderground v.1.15,2013-08-23 14:00:00,
2013-08-23 10:10:00,74.0,63.6,29.90,NNW,333,4.0,8.0,70,0.00,,,0.00,Wunderground v.1.15,2013-08-23 14:10:00,
2013-08-23 10:20:00,73.7,63.7,29.91,NNE,27,4.0,4.0,71,0.00,,,0.00,Wunderground v.1.15,2013-08-23 14:20:00,
2013-08-23 10:30:00,73.6,64.0,29.91,NE,36,4.0,4.0,72,0.00,,,0.00,Wunderground v.1.15,2013-08-23 14:30:00,
2013-08-23 10:40:00,73.3,63.7,29.92,ENE,58,4.0,8.0,72,0.00,,,0.00,Wunderground v.1.15,2013-08-23 14:40:00,
2013-08-23 10:50:00,73.3,63.7,29.92,ENE,59,4.0,4.0,72,0.00,,,0.00,Wunderground v.1.15,2013-08-23 14:50:00,
2013-08-23 11:00:00,73.1,64.3,29.92,NE,49,4.0,4.0,74,0.00,,,0.00,Wunderground v.1.15,2013-08-23 15:00:00,
2013-08-23 11:10:00,73.2,63.6,29.92,NNE,19,4.0,8.0,72,0.00,,,0.00,Wunderground v.1.15,2013-08-23 15:10:00,
2013-08-23 11:20:00,73.3,64.1,29.92,NNE,32,5.0,5.0,73,0.00,,,0.00,Wunderground v.1.15,2013-08-23 15:20:00,
2013-08-23 11:30:00,73.3,64.1,29.92,East,89,5.0,9.0,73,0.00,,,0.00,Wunderground v.1.15,2013-08-23 15:30:00,
2013-08-23 11:40:00,73.1,64.3,29.93,NNE,18,5.0,5.0,74,0.00,,,0.00,Wunderground v.1.15,2013-08-23 15:40:00,
2013-08-23 11:50:00,73.3,63.7,29.93,NE,36,5.0,8.0,72,0.00,,,0.00,Wunderground v.1.15,2013-08-23 15:50:00,
2013-08-23 12:00:00,72.2,63.1,29.93,NE,55,6.0,8.0,73,0.00,,,0.00,Wunderground v.1.15,2013-08-23 16:00:00,
2013-08-23 12:10:00,71.3,62.6,29.93,NNE,32,6.0,6.0,74,0.00,,,0.00,Wunderground v.1.15,2013-08-23 16:10:00,
2013-08-23 12:20:00,71.2,61.7,29.94,NE,41,5.0,5.0,72,0.00,,,0.00,Wunderground v.1.15,2013-08-23 16:20:00,
2013-08-23 12:30:00,70.5,61.4,29.94,NNE,23,6.0,6.0,73,0.00,,,0.00,Wunderground v.1.15,2013-08-23 16:30:00,
2013-08-23 12:40:00,70.3,61.2,29.94,NE,49,6.0,6.0,73,0.00,,,0.00,Wunderground v.1.15,2013-08-23 16:40:00,
2013-08-23 12:50:00,70.7,61.2,29.94,NE,36,5.0,8.0,72,0.00,,,0.00,Wunderground v.1.15,2013-08-23 16:50:00,
2013-08-23 13:00:00,71.2,61.7,29.94,NNE,14,6.0,6.0,72,0.00,,,0.00,Wunderground v.1.15,2013-08-23 17:00:00,
2013-08-23 13:10:00,71.5,62.4,29.94,ENE,72,6.0,8.0,73,0.00,,,0.00,Wunderground v.1.15,2013-08-23 17:10:00,
2013-08-23 13:20:00,71.8,63.1,29.94,NNE,26,5.0,8.0,74,0.00,,,0.00,Wunderground v.1.15,2013-08-23 17:20:00,
2013-08-23 13:30:00,71.9,62.4,29.94,NE,55,5.0,5.0,72,0.00,,,0.00,Wunderground v.1.15,2013-08-23 17:30:00,
2013-08-23 13:40:00,71.5,62.4,29.94,North,356,6.0,6.0,73,0.00,,,0.00,Wunderground v.1.15,2013-08-23 17:40:00,
2013-08-23 13:50:00,71.6,62.1,29.95,NNE,25,6.0,8.0,72,0.00,,,0.00,Wunderground v.1.15,2013-08-23 17:50:00,
2013-08-23 14:00:00,71.5,62.0,29.95,NE,53,6.0,6.0,72,0.00,,,0.00,Wunderground v.1.15,2013-08-23 18:00:00,
2013-08-23 14:10:00,71.3,61.4,29.95,NE,39,6.0,6.0,71,0.00,,,0.00,Wunderground v.1.15,2013-08-23 18:10:00,
2013-08-23 14:20:00,71.5,61.6,29.96,NE,46,6.0,6.0,71,0.00,,,0.00,Wunderground v.1.15,2013-08-23 18:20:00,
2013-08-23 14:30:00,71.4,61.1,29.96,NE,56,5.0,5.0,70,0.00,,,0.00,Wunderground v.1.15,2013-08-23 18:30:00,
2013-08-23 14:40:00,70.9,61.0,29.97,NE,44,5.0,5.0,71,0.00,,,0.00,Wunderground v.1.15,2013-08-23 18:40:00,
2013-08-23 14:50:00,71.5,61.2,29.97,ENE,58,4.0,8.0,70,0.00,,,0.00,Wunderground v.1.15,2013-08-23 18:50:00,
2013-08-23 15:00:00,70.8,60.5,29.97,NE,41,6.0,6.0,70,0.00,,,0.00,Wunderground v.1.15,2013-08-23 19:00:00,
2013-08-23 15:10:00,71.4,60.7,29.97,ENE,58,5.0,5.0,69,0.00,,,0.00,Wunderground v.1.15,2013-08-23 19:10:00,
2013-08-23 15:20:00,71.2,60.1,29.97,North,349,5.0,8.0,68,0.00,,,0.00,Wunderground v.1.15,2013-08-23 19:20:00,
2013-08-23 15:30:00,71.2,60.1,29.97,NNE,20,5.0,8.0,68,0.00,,,0.00,Wunderground v.1.15,2013-08-23 19:30:00,
2013-08-23 15:40:00,71.0,59.1,29.97,NE,54,6.0,6.0,66,0.00,,,0.00,Wunderground v.1.15,2013-08-23 19:40:00,
2013-08-23 15:50:00,71.1,59.6,29.98,NNE,22,5.0,5.0,67,0.00,,,0.00,Wunderground v.1.15,2013-08-23 19:50:00,
2013-08-23 16:00:00,71.1,59.2,29.97,NNE,27,5.0,8.0,66,0.00,,,0.00,Wunderground v.1.15,2013-08-23 20:00:00,
2013-08-23 16:10:00,71.2,58.8,29.98,North,4,4.0,8.0,65,0.00,,,0.00,Wunderground v.1.15,2013-08-23 20:10:00,
2013-08-23 16:20:00,71.2,58.4,29.98,NNE,13,4.0,8.0,64,0.00,,,0.00,Wunderground v.1.15,2013-08-23 20:20:00,
2013-08-23 16:30:00,71.1,59.6,29.98,ENE,61,4.0,4.0,67,0.00,,,0.00,Wunderground v.1.15,2013-08-23 20:30:00,
2013-08-23 16:40:00,70.9,59.0,29.98,NE,55,4.0,8.0,66,0.00,,,0.00,Wunderground v.1.15,2013-08-23 20:40:00,
2013-08-23 16:50:00,70.9,59.4,29.98,NE,55,4.0,4.0,67,0.00,,,0.00,Wunderground v.1.15,2013-08-23 20:50:00,
2013-08-23 17:00:00,70.2,59.6,29.99,ENE,68,4.0,4.0,69,0.00,,,0.00,Wunderground v.1.15,2013-08-23 21:00:00,
2013-08-23 17:10:00,69.8,59.6,29.99,NE,46,4.0,4.0,70,0.00,,,0.00,Wunderground v.1.15,2013-08-23 21:10:00,
2013-08-23 17:20:00,69.6,59.8,29.99,NE,55,3.0,3.0,71,0.00,,,0.00,Wunderground v.1.15,2013-08-23 21:20:00,
2013-08-23 17:30:00,69.0,59.2,29.99,ENE,58,3.0,8.0,71,0.00,,,0.00,Wunderground v.1.15,2013-08-23 21:30:00,
2013-08-23 17:40:00,68.7,59.7,29.99,NNE,32,3.0,8.0,73,0.00,,,0.00,Wunderground v.1.15,2013-08-23 21:40:00,
2013-08-23 17:50:00,68.5,60.3,29.99,ENE,63,3.0,3.0,75,0.00,,,0.00,Wunderground v.1.15,2013-08-23 21:50:00,
2013-08-23 18:00:00,68.3,60.4,29.99,NE,50,3.0,8.0,76,0.00,,,0.00,Wunderground v.1.15,2013-08-23 22:00:00,
2013-08-23 18:10:00,67.7,60.6,29.99,ENE,68,2.0,2.0,78,0.00,,,0.00,Wunderground v.1.15,2013-08-23 22:10:00,
2013-08-23 18:20:00,67.3,60.6,29.99,ENE,61,2.0,2.0,79,0.00,,,0.00,Wunderground v.1.15,2013-08-23 22:20:00,
2013-08-23 18:30:00,67.0,60.6,29.99,NE,42,1.0,8.0,80,0.00,,,0.00,Wunderground v.1.15,2013-08-23 22:30:00,
2013-08-23 18:40:00,66.6,60.6,29.99,NNE,32,2.0,8.0,81,0.00,,,0.00,Wunderground v.1.15,2013-08-23 22:40:00,
2013-08-23 18:50:00,66.4,60.7,29.99,NE,46,2.0,2.0,82,0.00,,,0.00,Wunderground v.1.15,2013-08-23 22:50:00,
2013-08-23 19:00:00,66.3,60.6,30.00,NE,41,1.0,8.0,82,0.00,,,0.00,Wunderground v.1.15,2013-08-23 23:00:00,
2013-08-23 19:10:00,66.0,60.3,30.00,NNE,33,2.0,2.0,82,0.00,,,0.00,Wunderground v.1.15,2013-08-23 23:10:00,
2013-08-23 19:20:00,65.8,60.5,30.00,NNE,32,2.0,2.0,83,0.00,,,0.00,Wunderground v.1.15,2013-08-23 23:20:00,
2013-08-23 19:30:00,65.4,60.4,30.01,NE,46,1.0,1.0,84,0.00,,,0.00,Wunderground v.1.15,2013-08-23 23:30:00,
2013-08-23 19:40:00,65.1,60.5,30.01,NE,47,1.0,8.0,85,0.00,,,0.00,Wunderground v.1.15,2013-08-23 23:40:00,
2013-08-23 19:50:00,65.0,60.7,30.01,NE,50,0.0,8.0,86,0.00,,,0.00,Wunderground v.1.15,2013-08-23 23:50:00,
2013-08-23 20:00:00,64.7,60.7,30.01,NE,50,0.0,8.0,87,0.00,,,0.00,Wunderground v.1.15,2013-08-24 00:00:00,
2013-08-23 20:10:00,64.5,60.5,30.03,NE,50,0.0,8.0,87,0.00,,,0.00,Wunderground v.1.15,2013-08-24 00:10:00,
2013-08-23 20:20:00,64.3,60.7,30.03,NE,50,0.0,8.0,88,0.00,,,0.00,Wunderground v.1.15,2013-08-24 00:20:00,
2013-08-23 20:30:00,64.1,60.5,30.03,NE,50,0.0,8.0,88,0.00,,,0.00,Wunderground v.1.15,2013-08-24 00:30:00,
2013-08-23 20:40:00,63.7,60.4,30.04,NE,50,0.0,8.0,89,0.00,,,0.00,Wunderground v.1.15,2013-08-24 00:40:00,
2013-08-23 20:50:00,63.0,60.0,30.05,NE,36,0.0,8.0,90,0.00,,,0.00,Wunderground v.1.15,2013-08-24 00:50:00,
2013-08-23 21:00:00,62.8,60.1,30.05,NNE,30,0.0,8.0,91,0.00,,,0.00,Wunderground v.1.15,2013-08-24 01:00:00,
2013-08-23 21:10:00,62.6,60.2,30.05,NNE,30,0.0,8.0,92,0.00,,,0.00,Wunderground v.1.15,2013-08-24 01:10:00,
2013-08-23 21:20:00,62.5,60.1,30.05,NNE,30,0.0,8.0,92,0.00,,,0.00,Wunderground v.1.15,2013-08-24 01:20:00,
2013-08-23 21:30:00,62.5,60.1,30.05,West,274,0.0,8.0,92,0.00,,,0.00,Wunderground v.1.15,2013-08-24 01:30:00,
2013-08-23 21:40:00,62.2,59.8,30.06,West,274,0.0,8.0,92,0.00,,,0.00,Wunderground v.1.15,2013-08-24 01:40:00,
2013-08-23 21:50:00,62.0,59.6,30.05,West,274,0.0,8.0,92,0.00,,,0.00,Wunderground v.1.15,2013-08-24 01:50:00,
2013-08-23 22:00:00,62.0,60.0,30.05,North,4,0.0,8.0,93,0.00,,,0.00,Wunderground v.1.15,2013-08-24 02:00:00,
2013-08-23 22:10:00,62.1,60.1,30.05,West,269,0.0,8.0,93,0.00,,,0.00,Wunderground v.1.15,2013-08-24 02:10:00,
2013-08-23 22:20:00,62.2,60.2,30.06,NNW,338,0.0,8.0,93,0.00,,,0.00,Wunderground v.1.15,2013-08-24 02:20:00,
2013-08-23 22:30:00,62.2,60.2,30.06,NW,323,0.0,8.0,93,0.00,,,0.00,Wunderground v.1.15,2013-08-24 02:30:00,
2013-08-23 22:40:00,62.4,60.3,30.07,NW,305,0.0,8.0,93,0.00,,,0.00,Wunderground v.1.15,2013-08-24 02:40:00,
2013-08-23 22:50:00,62.3,60.2,30.07,NW,313,0.0,8.0,93,0.00,,,0.00,Wunderground v.1.15,2013-08-24 02:50:00,
2013-08-23 23:00:00,62.4,60.3,30.07,North,350,0.0,8.0,93,0.00,,,0.00,Wunderground v.1.15,2013-08-24 03:00:00,
2013-08-23 23:10:00,62.1,60.1,30.08,West,264,0.0,8.0,93,0.00,,,0.00,Wunderground v.1.15,2013-08-24 03:10:00,
2013-08-23 23:20:00,61.8,59.8,30.08,West,264,0.0,8.0,93,0.00,,,0.00,Wunderground v.1.15,2013-08-24 03:20:00,
2013-08-23 23:30:00,61.6,59.9,30.08,West,272,0.0,8.0,94,0.00,,,0.00,Wunderground v.1.15,2013-08-24 03:30:00,
2013-08-23 23:40:00,61.5,59.8,30.08,NNE,27,0.0,8.0,94,0.00,,,0.00,Wunderground v.1.15,2013-08-24 03:40:00,
2013-08-23 23:50:00,61.5,59.5,30.08,North,6,0.0,8.0,93,0.00,,,0.00,Wunderground v.1.15,2013-08-24 03:50:00,